Time;durP1;ratioP1;P1;durP2;ratioP2;P2;SDS_P1;SDS_P2;PMS_P1;PMS_P2;Temp;Humidity;BMP_temperature;BMP_pressure;BME280_temperature;BME280_humidity;BME280_pressure;Samples;Min_cycle;Max_cycle;Signal;HPM_P1;HPM_P2
2021/09/20 00:02:18;;;;;;;58.47;2.90;;;14.00;1.00;;;;;;5032074;28;20455;-70
2021/09/20 00:04:45;;;;;;;57.97;2.67;;;14.00;1.00;;;;;;5031822;28;20492;-70
2021/09/20 00:07:12;;;;;;;58.33;2.60;;;14.00;1.00;;;;;;5031787;28;20544;-70
2021/09/20 00:09:38;;;;;;;58.27;2.57;;;14.00;1.00;;;;;;5031973;28;20491;-70
2021/09/20 00:12:06;;;;;;;58.30;2.83;;;14.00;1.00;;;;;;5031972;28;20484;-70
2021/09/20 00:14:33;;;;;;;58.03;2.70;;;14.00;1.00;;;;;;5028256;28;20521;-70
2021/09/20 00:16:59;;;;;;;58.27;3.07;;;14.00;1.00;;;;;;5030420;28;20844;-70
2021/09/20 00:19:28;;;;;;;60.00;4.40;;;14.00;1.00;;;;;;5031946;28;21103;-70
2021/09/20 00:21:54;;;;;;;58.30;3.00;;;14.00;1.00;;;;;;5031876;28;20450;-70
2021/09/20 00:24:21;;;;;;;58.27;2.70;;;14.00;1.00;;;;;;5031661;28;20976;-70
2021/09/20 00:26:48;;;;;;;58.50;3.07;;;14.00;1.00;;;;;;5031459;28;20553;-70
2021/09/20 00:29:15;;;;;;;58.37;3.10;;;14.00;1.00;;;;;;5031640;28;20493;-70
2021/09/20 00:31:42;;;;;;;58.40;2.80;;;14.00;1.00;;;;;;5031670;28;20455;-70
2021/09/20 00:34:09;;;;;;;58.97;3.83;;;14.10;1.00;;;;;;5031885;28;20480;-70
2021/09/20 00:36:37;;;;;;;58.33;3.20;;;14.00;1.00;;;;;;5031415;28;20806;-70
2021/09/20 00:39:04;;;;;;;58.70;3.40;;;14.00;1.00;;;;;;5031825;28;20813;-70
2021/09/20 00:41:31;;;;;;;58.30;2.80;;;14.00;1.00;;;;;;5031619;28;20821;-71
2021/09/20 00:43:58;;;;;;;58.27;2.77;;;14.00;1.00;;;;;;5031651;28;20452;-70
2021/09/20 00:46:25;;;;;;;58.27;2.80;;;14.00;1.00;;;;;;5028794;28;20938;-71
2021/09/20 00:48:52;;;;;;;58.50;3.07;;;14.00;1.00;;;;;;5032782;28;20491;-70
2021/09/20 00:51:18;;;;;;;58.37;2.70;;;14.00;1.00;;;;;;5035629;28;20448;-70
2021/09/20 00:53:47;;;;;;;59.30;3.70;;;14.00;1.00;;;;;;5034884;28;20787;-70
2021/09/20 00:56:14;;;;;;;58.80;2.50;;;14.00;1.00;;;;;;5034937;28;20473;-71
2021/09/20 00:58:41;;;;;;;57.93;2.80;;;14.00;1.00;;;;;;5035256;28;20449;-71
2021/09/20 01:01:08;;;;;;;58.10;2.40;;;14.00;1.00;;;;;;5035241;28;20462;-71
2021/09/20 01:03:35;;;;;;;58.07;2.60;;;14.00;1.00;;;;;;5035735;28;20516;-71
2021/09/20 01:06:04;;;;;;;58.37;2.90;;;14.00;1.00;;;;;;5034864;28;20488;-70
2021/09/20 01:08:31;;;;;;;58.23;2.60;;;13.90;1.00;;;;;;5014246;28;20682;-70
2021/09/20 01:11:00;;;;;;;58.27;3.40;;;13.90;1.00;;;;;;5015970;28;20494;-70
2021/09/20 01:13:26;;;;;;;58.20;2.40;;;13.90;1.00;;;;;;5016272;28;20536;-70
2021/09/20 01:15:53;;;;;;;59.77;2.97;;;13.90;1.00;;;;;;5015472;28;20515;-70
2021/09/20 01:18:20;;;;;;;57.93;2.57;;;13.90;1.00;;;;;;5017594;28;20465;-70
2021/09/20 01:20:47;;;;;;;58.60;3.07;;;14.00;1.00;;;;;;5028240;28;20548;-70
2021/09/20 01:23:16;;;;;;;58.07;2.60;;;14.00;1.00;;;;;;5031341;28;20453;-70
2021/09/20 01:25:43;;;;;;;58.00;2.70;;;14.00;1.00;;;;;;5030926;28;20544;-70
2021/09/20 01:28:10;;;;;;;58.27;2.90;;;14.00;1.00;;;;;;5034274;28;21018;-70
2021/09/20 01:30:37;;;;;;;59.20;3.00;;;14.00;1.00;;;;;;5034852;28;21012;-71
2021/09/20 01:33:04;;;;;;;58.23;2.90;;;14.00;1.00;;;;;;5035142;28;20451;-70
2021/09/20 01:35:31;;;;;;;58.27;2.60;;;14.00;1.00;;;;;;5034380;28;20544;-71
2021/09/20 01:37:58;;;;;;;58.20;2.80;;;14.00;1.00;;;;;;5034866;28;20464;-70
2021/09/20 01:40:27;;;;;;;58.80;3.30;;;13.90;1.00;;;;;;5034597;28;20455;-70
2021/09/20 01:42:55;;;;;;;59.00;3.37;;;13.90;1.00;;;;;;5034734;28;20445;-70
2021/09/20 01:45:23;;;;;;;58.23;2.73;;;13.90;1.00;;;;;;5034580;28;20539;-70
2021/09/20 01:47:50;;;;;;;58.30;2.57;;;13.90;1.00;;;;;;5035052;28;20469;-70
2021/09/20 01:50:17;;;;;;;58.10;2.53;;;13.90;1.00;;;;;;5034598;28;20583;-71
2021/09/20 01:52:44;;;;;;;57.40;2.73;;;13.90;1.00;;;;;;5031543;28;20541;-70
2021/09/20 01:55:12;;;;;;;58.07;2.80;;;13.90;1.00;;;;;;5034588;28;20446;-70
2021/09/20 01:57:41;;;;;;;58.07;2.63;;;13.90;1.00;;;;;;5033592;28;20598;-70
2021/09/20 02:00:11;;;;;;;60.83;3.00;;;13.90;1.00;;;;;;5033876;28;20878;-70
2021/09/20 02:02:38;;;;;;;58.13;2.63;;;13.90;1.00;;;;;;5034112;28;20544;-70
2021/09/20 02:05:06;;;;;;;58.37;2.70;;;13.90;1.00;;;;;;5034384;28;20445;-70
2021/09/20 02:07:34;;;;;;;58.17;2.80;;;13.80;1.00;;;;;;5033950;28;20909;-70
2021/09/20 02:10:01;;;;;;;58.37;2.90;;;13.80;1.00;;;;;;5034535;28;20919;-70
2021/09/20 02:12:27;;;;;;;60.20;3.20;;;13.80;1.00;;;;;;5034135;28;20829;-70
2021/09/20 02:14:56;;;;;;;58.27;3.77;;;13.80;1.00;;;;;;5033945;28;20533;-70
2021/09/20 02:17:23;;;;;;;58.17;2.70;;;13.80;1.00;;;;;;5034004;28;20559;-70
2021/09/20 02:19:50;;;;;;;58.43;3.07;;;13.80;1.00;;;;;;5034147;28;20445;-70
2021/09/20 02:22:17;;;;;;;58.20;3.00;;;13.80;1.00;;;;;;5034106;28;20449;-70
2021/09/20 02:24:44;;;;;;;59.17;3.57;;;13.80;1.00;;;;;;5029920;28;20445;-70
2021/09/20 02:27:11;;;;;;;58.23;2.63;;;13.80;1.00;;;;;;5033487;28;20980;-69
2021/09/20 02:29:38;;;;;;;58.20;2.80;;;13.80;1.00;;;;;;5033438;28;20485;-70
2021/09/20 02:32:07;;;;;;;58.93;3.10;;;13.80;1.00;;;;;;5033622;28;20445;-70
2021/09/20 02:34:34;;;;;;;58.30;2.70;;;13.80;1.00;;;;;;5032674;28;20453;-70
2021/09/20 02:37:01;;;;;;;58.40;3.17;;;13.80;1.00;;;;;;5033273;28;20469;-70
2021/09/20 02:39:28;;;;;;;58.47;3.03;;;13.80;1.00;;;;;;5032879;28;20452;-70
2021/09/20 02:41:55;;;;;;;57.97;2.70;;;13.80;1.00;;;;;;5033620;28;20477;-70
2021/09/20 02:44:22;;;;;;;58.97;3.53;;;13.80;1.00;;;;;;5033397;28;20459;-70
2021/09/20 02:46:49;;;;;;;58.07;2.80;;;13.80;1.00;;;;;;5032974;28;20472;-70
2021/09/20 02:49:18;;;;;;;58.30;2.90;;;13.80;1.00;;;;;;5033580;28;20481;-70
2021/09/20 02:51:45;;;;;;;58.40;3.00;;;13.70;1.00;;;;;;5033376;28;20555;-70
2021/09/20 02:54:11;;;;;;;58.10;2.93;;;13.70;1.00;;;;;;5033100;28;20496;-70
2021/09/20 02:56:39;;;;;;;58.17;2.80;;;13.70;1.00;;;;;;5015818;28;20470;-70
2021/09/20 02:59:06;;;;;;;58.07;2.60;;;13.70;1.00;;;;;;5013700;28;20823;-70
2021/09/20 03:01:32;;;;;;;58.30;2.97;;;13.70;1.00;;;;;;5013534;28;20554;-70
2021/09/20 03:03:59;;;;;;;58.40;2.83;;;13.70;1.00;;;;;;5013581;28;20484;-70
2021/09/20 03:06:28;;;;;;;58.40;3.10;;;13.70;1.00;;;;;;5013409;28;20525;-70
2021/09/20 03:08:54;;;;;;;58.17;2.50;;;13.70;1.00;;;;;;5013206;28;20572;-70
2021/09/20 03:11:22;;;;;;;57.97;2.60;;;13.70;1.00;;;;;;5013071;28;20450;-70
2021/09/20 03:13:49;;;;;;;58.67;3.50;;;13.70;1.00;;;;;;5013455;28;20496;-70
2021/09/20 03:16:15;;;;;;;58.90;3.20;;;13.70;1.00;;;;;;5012801;28;20457;-70
2021/09/20 03:18:42;;;;;;;58.47;3.30;;;13.60;1.00;;;;;;5013114;28;20486;-70
2021/09/20 03:21:09;;;;;;;58.00;2.40;;;13.60;1.00;;;;;;5012918;28;20481;-71
2021/09/20 03:23:37;;;;;;;59.40;3.70;;;13.60;1.00;;;;;;5012983;28;20535;-71
2021/09/20 03:26:04;;;;;;;59.47;3.47;;;13.60;1.00;;;;;;5012153;28;20473;-70
2021/09/20 03:28:31;;;;;;;58.37;2.60;;;13.60;1.00;;;;;;5032239;28;20567;-70
2021/09/20 03:30:58;;;;;;;58.17;2.60;;;13.60;1.00;;;;;;5032106;28;20544;-70
2021/09/20 03:33:25;;;;;;;58.40;2.80;;;13.60;1.00;;;;;;5032756;28;20451;-70
2021/09/20 03:35:52;;;;;;;58.07;2.60;;;13.60;1.00;;;;;;5032235;28;20540;-70
2021/09/20 03:38:18;;;;;;;58.27;2.60;;;13.60;1.00;;;;;;5032309;28;20473;-70
2021/09/20 03:40:47;;;;;;;58.27;2.57;;;13.60;1.00;;;;;;5032694;28;20531;-70
2021/09/20 03:43:13;;;;;;;58.80;2.80;;;13.60;1.00;;;;;;5032487;28;20545;-70
2021/09/20 03:45:40;;;;;;;58.07;2.67;;;13.50;1.00;;;;;;5032162;28;20471;-70
2021/09/20 03:48:07;;;;;;;58.50;3.00;;;13.50;1.00;;;;;;5032365;28;20553;-70
2021/09/20 03:50:34;;;;;;;58.27;2.77;;;13.50;1.00;;;;;;5032331;28;20484;-70
2021/09/20 03:53:01;;;;;;;58.23;2.60;;;13.50;1.00;;;;;;5032022;28;20906;-71
2021/09/20 03:55:28;;;;;;;58.17;2.80;;;13.50;1.00;;;;;;5031904;28;20971;-70
2021/09/20 03:57:56;;;;;;;58.30;2.70;;;13.50;1.00;;;;;;5028201;28;20473;-70
2021/09/20 04:00:23;;;;;;;58.50;3.00;;;13.50;1.00;;;;;;5031666;28;20453;-70
2021/09/20 04:02:50;;;;;;;60.30;3.30;;;13.50;1.00;;;;;;5032309;28;20535;-70
2021/09/20 04:05:16;;;;;;;58.17;2.70;;;13.50;1.00;;;;;;5032057;28;20556;-70
2021/09/20 04:07:43;;;;;;;58.33;2.60;;;13.40;1.00;;;;;;5031647;28;20548;-70
2021/09/20 04:10:12;;;;;;;58.27;2.60;;;13.40;1.00;;;;;;5032154;28;20535;-70
2021/09/20 04:12:39;;;;;;;58.37;2.67;;;13.40;1.00;;;;;;5032066;28;20445;-70
2021/09/20 04:15:08;;;;;;;58.17;2.63;;;13.40;1.00;;;;;;5032101;28;20446;-70
2021/09/20 04:17:35;;;;;;;58.40;3.00;;;13.40;1.00;;;;;;5030975;28;20556;-70
2021/09/20 04:20:02;;;;;;;58.67;3.07;;;13.40;1.00;;;;;;5031344;28;20533;-70
2021/09/20 04:22:29;;;;;;;58.17;2.90;;;13.40;1.00;;;;;;5031914;28;20548;-70
2021/09/20 04:24:56;;;;;;;58.30;2.70;;;13.40;1.00;;;;;;5031672;28;20544;-70
2021/09/20 04:27:22;;;;;;;57.97;2.60;;;13.40;1.00;;;;;;5031477;28;20475;-70
2021/09/20 04:29:49;;;;;;;58.37;2.60;;;13.40;1.00;;;;;;5028038;28;20516;-70
2021/09/20 04:32:18;;;;;;;59.90;3.27;;;13.50;1.00;;;;;;5031680;28;20810;-70
2021/09/20 04:34:45;;;;;;;58.50;2.87;;;13.50;1.00;;;;;;5031426;28;20457;-70
2021/09/20 04:37:13;;;;;;;58.37;2.90;;;13.40;1.00;;;;;;5031605;28;20552;-71
2021/09/20 04:39:41;;;;;;;58.27;2.80;;;13.40;1.00;;;;;;5031792;28;20482;-71
2021/09/20 04:42:08;;;;;;;58.23;2.70;;;13.50;1.00;;;;;;5031808;28;20453;-70
2021/09/20 04:44:34;;;;;;;57.97;2.60;;;13.50;1.00;;;;;;5031690;28;20449;-70
2021/09/20 04:47:01;;;;;;;58.50;3.57;;;13.50;1.00;;;;;;5031176;28;20497;-70
2021/09/20 04:49:30;;;;;;;58.00;2.77;;;13.50;1.00;;;;;;5031465;28;20574;-70
2021/09/20 04:51:56;;;;;;;58.27;2.60;;;13.50;1.00;;;;;;5032022;28;20445;-70
2021/09/20 04:54:23;;;;;;;58.27;2.90;;;13.50;1.00;;;;;;5031641;28;20453;-70
2021/09/20 04:56:50;;;;;;;58.20;2.80;;;13.50;1.00;;;;;;5031097;28;20509;-70
2021/09/20 04:59:17;;;;;;;58.10;2.50;;;13.50;1.00;;;;;;5031387;28;20482;-70
2021/09/20 05:01:44;;;;;;;58.07;2.60;;;13.50;1.00;;;;;;5028910;28;20493;-70
2021/09/20 05:04:13;;;;;;;58.60;2.90;;;13.50;1.00;;;;;;5035155;28;20449;-70
2021/09/20 05:06:41;;;;;;;59.07;3.00;;;13.50;1.00;;;;;;5035024;28;20938;-70
2021/09/20 05:09:10;;;;;;;58.17;2.80;;;13.50;1.00;;;;;;5035190;28;20945;-70
2021/09/20 05:11:37;;;;;;;58.60;2.80;;;13.50;1.00;;;;;;5035085;28;20530;-70
2021/09/20 05:14:04;;;;;;;58.37;2.93;;;13.50;1.00;;;;;;5035373;28;20814;-70
2021/09/20 05:16:31;;;;;;;58.13;2.60;;;13.50;1.00;;;;;;5034565;28;20461;-70
2021/09/20 05:18:58;;;;;;;57.97;2.70;;;13.50;1.00;;;;;;5029473;28;20452;-70
2021/09/20 05:21:25;;;;;;;58.17;2.50;;;13.50;1.00;;;;;;5035235;28;20467;-70
2021/09/20 05:23:53;;;;;;;58.50;3.53;;;13.50;1.00;;;;;;5035149;28;20544;-70
2021/09/20 05:26:20;;;;;;;58.50;2.70;;;13.50;1.00;;;;;;5034681;28;20472;-70
2021/09/20 05:28:47;;;;;;;58.17;2.73;;;13.50;1.00;;;;;;5034841;28;20555;-70
2021/09/20 05:31:14;;;;;;;58.57;3.00;;;13.50;1.00;;;;;;5034921;28;20484;-70
2021/09/20 05:33:41;;;;;;;58.00;2.67;;;13.50;1.00;;;;;;5035257;28;20463;-70
2021/09/20 05:36:08;;;;;;;59.87;4.23;;;13.50;1.00;;;;;;5031280;28;20567;-70
2021/09/20 05:38:35;;;;;;;58.13;2.60;;;13.60;1.00;;;;;;5034802;28;20465;-70
2021/09/20 05:41:04;;;;;;;58.27;2.60;;;13.60;1.00;;;;;;5035112;28;20800;-70
2021/09/20 05:43:30;;;;;;;58.97;3.37;;;13.60;1.00;;;;;;5034411;28;20444;-70
2021/09/20 05:45:57;;;;;;;58.03;2.60;;;13.70;1.00;;;;;;5034419;28;20827;-70
2021/09/20 05:48:24;;;;;;;58.80;3.50;;;13.70;1.00;;;;;;5034685;28;20461;-70
2021/09/20 05:50:51;;;;;;;58.30;2.80;;;13.70;1.00;;;;;;5034336;28;20575;-70
2021/09/20 05:53:18;;;;;;;58.20;2.90;;;13.80;1.00;;;;;;5032917;28;20536;-70
2021/09/20 05:55:45;;;;;;;59.10;4.90;;;13.80;1.00;;;;;;5033151;28;20460;-70
2021/09/20 05:58:13;;;;;;;58.13;2.60;;;13.80;1.00;;;;;;5034651;28;20496;-70
2021/09/20 06:00:40;;;;;;;58.27;2.77;;;13.90;1.00;;;;;;5034423;28;20445;-70
2021/09/20 06:03:07;;;;;;;58.27;2.97;;;13.90;1.00;;;;;;5034617;28;20516;-70
2021/09/20 06:05:38;;;;;;;58.10;2.60;;;13.90;1.00;;;;;;5033766;28;20481;-70
2021/09/20 06:08:05;;;;;;;59.77;3.93;;;14.00;1.00;;;;;;5029907;28;20472;-70
2021/09/20 06:10:32;;;;;;;58.80;3.50;;;14.00;1.00;;;;;;5024824;28;20482;-71
2021/09/20 06:12:59;;;;;;;58.37;3.00;;;14.00;1.00;;;;;;5013489;28;20538;-71
2021/09/20 06:15:27;;;;;;;58.07;2.40;;;14.00;1.00;;;;;;5014117;28;20482;-71
2021/09/20 06:17:54;;;;;;;58.07;2.40;;;14.10;1.00;;;;;;5014303;28;20694;-71
2021/09/20 06:20:21;;;;;;;58.37;2.80;;;14.10;1.00;;;;;;5014225;28;20540;-70
2021/09/20 06:22:48;;;;;;;58.30;2.80;;;14.10;1.00;;;;;;5017262;28;20450;-71
2021/09/20 06:25:15;;;;;;;58.50;2.67;;;14.20;1.00;;;;;;5033678;28;20477;-71
2021/09/20 06:27:42;;;;;;;58.30;3.10;;;14.20;1.00;;;;;;5033637;28;20561;-71
2021/09/20 06:30:12;;;;;;;59.80;3.47;;;14.20;1.00;;;;;;5033807;28;20575;-71
2021/09/20 06:32:40;;;;;;;58.17;2.50;;;14.20;1.00;;;;;;5034294;28;20453;-71
2021/09/20 06:35:08;;;;;;;58.10;2.60;;;14.30;1.00;;;;;;5033694;28;20893;-70
2021/09/20 06:37:35;;;;;;;58.27;2.70;;;14.30;1.00;;;;;;5032962;28;20864;-71
2021/09/20 06:40:02;;;;;;;58.27;2.77;;;14.30;1.00;;;;;;5033818;28;20452;-71
2021/09/20 06:42:29;;;;;;;58.07;2.50;;;14.40;1.00;;;;;;5033773;28;20895;-71
2021/09/20 06:44:56;;;;;;;58.17;2.50;;;14.40;1.00;;;;;;5033454;28;20541;-71
2021/09/20 06:47:24;;;;;;;66.83;3.80;;;14.50;1.00;;;;;;5033202;28;20785;-71
2021/09/20 06:49:52;;;;;;;58.30;2.80;;;14.50;1.00;;;;;;5033290;28;20986;-71
2021/09/20 06:52:19;;;;;;;58.00;2.70;;;14.60;1.00;;;;;;5033006;28;20482;-71
2021/09/20 06:54:46;;;;;;;57.77;2.40;;;14.60;1.00;;;;;;5033319;28;20482;-71
2021/09/20 06:57:14;;;;;;;58.27;2.90;;;14.70;1.00;;;;;;5033017;28;20466;-71
2021/09/20 06:59:40;;;;;;;57.97;2.67;;;14.80;1.00;;;;;;5033300;28;20457;-71
2021/09/20 07:02:08;;;;;;;59.43;3.37;;;14.80;1.00;;;;;;5033804;28;20556;-71
2021/09/20 07:04:35;;;;;;;58.30;3.00;;;14.90;1.00;;;;;;5033099;28;20906;-71
2021/09/20 07:07:03;;;;;;;58.90;3.43;;;15.00;1.00;;;;;;5032764;28;20578;-71
2021/09/20 07:09:30;;;;;;;57.97;2.67;;;15.00;1.00;;;;;;5033326;28;20452;-71
2021/09/20 07:11:57;;;;;;;59.30;2.90;;;15.10;1.00;;;;;;5033155;28;20508;-71
2021/09/20 07:14:24;;;;;;;57.67;2.70;;;15.10;1.00;;;;;;5033028;28;20451;-71
2021/09/20 07:16:51;;;;;;;58.13;2.70;;;15.10;1.00;;;;;;5032583;28;20466;-71
2021/09/20 07:19:17;;;;;;;59.03;2.90;;;15.20;1.00;;;;;;5033069;28;20447;-71
2021/09/20 07:21:44;;;;;;;57.93;2.57;;;15.20;1.00;;;;;;5033059;28;20538;-71
2021/09/20 07:24:13;;;;;;;58.90;3.63;;;15.30;1.00;;;;;;5032551;28;20976;-70
2021/09/20 07:26:39;;;;;;;58.40;2.97;;;15.30;1.00;;;;;;5032787;28;20569;-71
2021/09/20 07:29:07;;;;;;;58.40;2.97;;;15.40;1.00;;;;;;5032726;28;20959;-71
2021/09/20 07:31:34;;;;;;;58.03;2.60;;;15.50;1.00;;;;;;5032501;28;20581;-71
2021/09/20 07:34:01;;;;;;;58.27;3.00;;;15.50;1.00;;;;;;5032853;28;20451;-71
2021/09/20 07:36:28;;;;;;;59.27;4.13;;;15.70;1.00;;;;;;5032187;28;20457;-71
2021/09/20 07:38:55;;;;;;;58.60;3.57;;;15.70;1.00;;;;;;5032563;28;20459;-71
2021/09/20 07:41:23;;;;;;;58.00;2.77;;;15.80;1.00;;;;;;5032608;28;20531;-71
2021/09/20 07:43:50;;;;;;;58.20;2.90;;;15.90;1.00;;;;;;5032507;28;20487;-71
2021/09/20 07:46:22;;;;;;;58.03;2.50;;;15.90;1.00;;;;;;5031958;28;20487;-71
2021/09/20 07:48:49;;;;;;;58.07;2.50;;;16.00;1.00;;;;;;5032400;28;20520;-71
2021/09/20 07:51:16;;;;;;;58.07;2.77;;;16.10;1.00;;;;;;5032184;28;20494;-71
2021/09/20 07:53:43;;;;;;;59.20;3.73;;;16.10;1.00;;;;;;5032334;28;20448;-71
2021/09/20 07:56:10;;;;;;;58.20;2.57;;;16.10;1.00;;;;;;5031961;28;20891;-69
2021/09/20 07:58:38;;;;;;;58.77;3.03;;;16.10;1.00;;;;;;5032038;28;21016;-69
2021/09/20 08:01:05;;;;;;;58.70;3.20;;;16.10;1.00;;;;;;5032216;28;20450;-70
2021/09/20 08:03:32;;;;;;;58.57;2.70;;;16.10;1.00;;;;;;5032294;28;20447;-70
2021/09/20 08:05:59;;;;;;;58.00;2.40;;;16.10;1.00;;;;;;5031947;28;20896;-70
2021/09/20 08:08:26;;;;;;;58.70;3.60;;;16.10;1.00;;;;;;5031994;28;20502;-70
2021/09/20 08:10:53;;;;;;;58.13;3.00;;;16.10;1.00;;;;;;5031994;28;20507;-70
2021/09/20 08:13:20;;;;;;;58.20;2.60;;;16.20;1.00;;;;;;5031945;28;20450;-70
2021/09/20 08:15:49;;;;;;;57.97;3.10;;;16.30;1.00;;;;;;5031825;28;20457;-70
2021/09/20 08:18:16;;;;;;;58.17;2.70;;;16.40;1.00;;;;;;5032156;28;20471;-70
2021/09/20 08:20:45;;;;;;;59.47;3.03;;;16.50;1.00;;;;;;5032054;28;20525;-70
2021/09/20 08:23:13;;;;;;;58.20;3.27;;;16.60;1.00;;;;;;5031902;28;20474;-70
2021/09/20 08:25:40;;;;;;;58.37;3.30;;;16.60;1.00;;;;;;5031535;28;20456;-70
2021/09/20 08:28:08;;;;;;;57.87;2.70;;;16.70;1.00;;;;;;5031571;28;20507;-70
2021/09/20 08:30:35;;;;;;;58.10;2.60;;;16.70;1.00;;;;;;5031891;28;20495;-70
2021/09/20 08:33:03;;;;;;;58.07;2.80;;;16.80;1.00;;;;;;5031929;28;20455;-70
2021/09/20 08:35:30;;;;;;;58.37;3.13;;;16.90;1.00;;;;;;5031429;28;20823;-70
2021/09/20 08:37:57;;;;;;;58.20;3.33;;;17.00;1.00;;;;;;5026946;28;20508;-71
2021/09/20 08:40:26;;;;;;;58.03;2.60;;;17.10;1.00;;;;;;5031453;28;20452;-70
2021/09/20 08:42:54;;;;;;;57.77;2.80;;;17.20;1.00;;;;;;5031875;28;20483;-69
2021/09/20 08:45:22;;;;;;;59.10;3.07;;;17.40;1.00;;;;;;5031439;28;20976;-68
2021/09/20 08:47:52;;;;;;;57.80;2.67;;;17.50;1.00;;;;;;5031398;28;20471;-68
2021/09/20 08:50:23;;;;;;;58.17;2.50;;;17.60;1.00;;;;;;5031493;28;20466;-69
2021/09/20 08:52:50;;;;;;;58.07;3.20;;;17.70;1.00;;;;;;5026825;28;20488;-69
2021/09/20 08:55:17;;;;;;;59.67;3.73;;;17.80;1.00;;;;;;5030818;28;20462;-70
2021/09/20 08:57:44;;;;;;;58.00;2.30;;;17.90;1.00;;;;;;5030836;28;21006;-70
2021/09/20 09:00:13;;;;;;;58.10;2.50;;;18.00;1.00;;;;;;5031609;28;20775;-70
2021/09/20 09:02:41;;;;;;;57.80;2.77;;;18.00;1.00;;;;;;5031459;28;20534;-70
2021/09/20 09:05:23;;;;;;;58.20;2.43;;;18.10;1.00;;;;;;5031494;28;20548;-70
2021/09/20 09:07:56;;;;;;;57.67;2.40;;;18.10;1.00;;;;;;5031473;28;20984;-70
2021/09/20 09:10:24;;;;;;;58.90;3.37;;;18.20;1.00;;;;;;5031492;28;20816;-70
2021/09/20 09:12:52;;;;;;;58.33;2.83;;;18.30;1.00;;;;;;5031518;28;20710;-70
2021/09/20 09:15:21;;;;;;;58.17;2.87;;;18.40;1.00;;;;;;5031375;28;20492;-70
2021/09/20 09:17:50;;;;;;;58.33;2.80;;;18.50;1.00;;;;;;5031123;28;20840;-70
2021/09/20 09:20:21;;;;;;;58.07;3.20;;;18.50;1.00;;;;;;5031124;28;20490;-70
2021/09/20 09:22:51;;;;;;;58.80;3.13;;;18.50;1.00;;;;;;5031464;28;20456;-70
2021/09/20 09:25:22;;;;;;;59.00;3.10;;;18.60;1.00;;;;;;5031382;28;20483;-70
2021/09/20 09:27:52;;;;;;;58.07;3.20;;;18.60;1.00;;;;;;5031300;28;20551;-70
2021/09/20 09:30:22;;;;;;;58.73;3.00;;;18.70;1.00;;;;;;5031332;28;20475;-70
2021/09/20 09:33:02;;;;;;;58.10;2.67;;;18.70;1.00;;;;;;5031015;28;20495;-70
2021/09/20 09:35:31;;;;;;;58.17;2.60;;;18.70;1.00;;;;;;5031159;28;20479;-70
2021/09/20 09:38:04;;;;;;;57.87;3.10;;;18.70;1.00;;;;;;5030858;28;20496;-70
2021/09/20 09:40:43;;;;;;;58.50;2.93;;;18.60;1.00;;;;;;5031167;28;20452;-70
2021/09/20 09:43:10;;;;;;;58.60;3.63;;;18.50;1.00;;;;;;5030981;28;20544;-70
2021/09/20 09:45:38;;;;;;;58.97;3.83;;;18.40;1.00;;;;;;5030960;28;20889;-70
2021/09/20 09:48:16;;;;;;;58.27;2.87;;;18.20;1.00;;;;;;5032647;28;20472;-70
2021/09/20 09:50:46;;;;;;;59.07;3.93;;;18.10;1.00;;;;;;5034490;28;20459;-70
2021/09/20 09:53:28;;;;;;;59.60;4.37;;;18.20;1.00;;;;;;5035114;28;20526;-70
2021/09/20 09:55:57;;;;;;;57.67;2.40;;;18.20;1.00;;;;;;5034299;28;20539;-70
2021/09/20 09:58:25;;;;;;;59.20;3.50;;;18.30;1.00;;;;;;5034291;28;20472;-70
2021/09/20 10:01:10;;;;;;;58.60;3.70;;;18.30;1.00;;;;;;5034521;28;20467;-70
2021/09/20 10:04:05;;;;;;;58.20;2.70;;;18.40;1.00;;;;;;5034385;28;20491;-70
2021/09/20 10:06:46;;;;;;;58.30;2.93;;;18.50;1.00;;;;;;5034123;28;20539;-70
2021/09/20 10:09:17;;;;;;;58.07;2.60;;;18.50;1.00;;;;;;5034343;28;20457;-70
2021/09/20 10:11:47;;;;;;;57.80;2.40;;;18.40;1.00;;;;;;5034375;28;20515;-70
2021/09/20 10:14:15;;;;;;;57.97;3.10;;;18.40;1.00;;;;;;5034382;28;20459;-70
2021/09/20 10:16:43;;;;;;;57.73;2.57;;;18.30;1.00;;;;;;5033789;28;20911;-70
2021/09/20 10:19:10;;;;;;;58.10;2.67;;;18.20;1.00;;;;;;5034875;28;20451;-70
2021/09/20 10:21:38;;;;;;;58.70;3.33;;;18.10;1.00;;;;;;5034279;28;20445;-70
2021/09/20 10:24:05;;;;;;;59.00;3.87;;;18.10;1.00;;;;;;5034091;28;20932;-70
2021/09/20 10:26:34;;;;;;;57.97;2.67;;;18.10;1.00;;;;;;5033480;28;20841;-70
2021/09/20 10:29:04;;;;;;;57.97;2.60;;;18.10;1.00;;;;;;5033896;28;20486;-70
2021/09/20 10:31:32;;;;;;;58.13;2.73;;;18.10;1.00;;;;;;5033991;28;20500;-71
2021/09/20 10:34:30;;;;;;;57.67;2.87;;;18.10;1.00;;;;;;5034227;28;20542;-71
2021/09/20 10:37:04;;;;;;;57.97;2.70;;;18.10;1.00;;;;;;5027868;28;20546;-70
2021/09/20 10:40:04;;;;;;;58.60;3.37;;;18.20;1.00;;;;;;5033750;28;20444;-71
2021/09/20 10:43:02;;;;;;;58.60;2.70;;;18.20;1.00;;;;;;4972777;28;21070;-70
2021/09/20 10:45:52;;;;;;;58.20;3.00;;;18.20;1.00;;;;;;5033608;28;20506;-71
2021/09/20 10:48:47;;;;;;;57.97;3.00;;;18.20;1.00;;;;;;5033726;28;20468;-70
2021/09/20 10:51:36;;;;;;;57.77;2.57;;;18.20;1.00;;;;;;5033402;28;20487;-71
2021/09/20 10:54:17;;;;;;;57.93;2.60;;;18.20;1.00;;;;;;5033447;28;20823;-70
2021/09/20 10:56:46;;;;;;;58.97;2.60;;;18.20;1.00;;;;;;5033065;28;20552;-70
2021/09/20 10:59:24;;;;;;;57.73;2.60;;;18.20;1.00;;;;;;5032842;28;20456;-70
2021/09/20 11:02:00;;;;;;;58.13;2.53;;;18.20;1.00;;;;;;5033357;28;20444;-70
2021/09/20 11:04:32;;;;;;;57.93;2.30;;;18.20;1.00;;;;;;5033126;28;20441;-70
2021/09/20 11:07:15;;;;;;;57.47;2.80;;;18.30;1.00;;;;;;5032899;28;20483;-70
2021/09/20 11:09:54;;;;;;;57.40;2.57;;;18.40;1.00;;;;;;5033223;28;20472;-70
2021/09/20 11:12:23;;;;;;;57.67;2.40;;;18.40;1.00;;;;;;5033299;28;20486;-70
2021/09/20 11:15:02;;;;;;;58.10;3.10;;;18.50;1.00;;;;;;5033077;28;20477;-70
2021/09/20 11:17:42;;;;;;;58.60;3.10;;;18.60;1.00;;;;;;5032614;28;21051;-70
2021/09/20 11:20:22;;;;;;;57.37;2.33;;;18.60;1.00;;;;;;5033029;28;20543;-70
2021/09/20 11:22:49;;;;;;;58.60;3.20;;;18.70;1.00;;;;;;5032931;28;20524;-70
2021/09/20 11:25:17;;;;;;;58.20;3.30;;;18.80;1.00;;;;;;5033318;28;20503;-70
2021/09/20 11:27:46;;;;;;;57.87;2.53;;;18.90;1.00;;;;;;5032885;28;20908;-71
2021/09/20 11:30:17;;;;;;;57.97;3.10;;;18.90;1.00;;;;;;5032738;28;20939;-70
2021/09/20 11:32:47;;;;;;;58.07;2.57;;;19.00;1.00;;;;;;5032604;28;20491;-70
2021/09/20 11:35:15;;;;;;;58.30;3.00;;;19.10;1.00;;;;;;5032484;28;20451;-70
2021/09/20 11:37:42;;;;;;;58.17;2.60;;;19.10;1.00;;;;;;5032054;28;20476;-70
2021/09/20 11:40:11;;;;;;;57.87;2.63;;;19.10;1.00;;;;;;5032503;28;20489;-70
2021/09/20 11:42:45;;;;;;;58.27;2.90;;;19.10;1.00;;;;;;5032415;28;20494;-70
2021/09/20 11:45:17;;;;;;;58.20;2.80;;;19.20;1.00;;;;;;5032494;28;20455;-71
2021/09/20 11:47:47;;;;;;;57.47;2.60;;;19.30;1.00;;;;;;5032061;28;20468;-70
2021/09/20 11:50:17;;;;;;;58.67;2.90;;;19.30;1.00;;;;;;5032297;28;20476;-70
2021/09/20 11:52:47;;;;;;;57.77;2.90;;;19.30;1.00;;;;;;5032372;28;20942;-70
2021/09/20 11:55:18;;;;;;;58.07;2.80;;;19.50;1.00;;;;;;5032271;28;20533;-70
2021/09/20 11:57:47;;;;;;;58.97;2.63;;;19.60;1.00;;;;;;5032042;28;20482;-70
2021/09/20 12:00:17;;;;;;;58.30;3.23;;;19.70;1.00;;;;;;5032217;28;20489;-71
2021/09/20 12:02:46;;;;;;;58.27;2.90;;;19.90;1.00;;;;;;5032082;28;20981;-70
2021/09/20 12:05:16;;;;;;;57.97;2.70;;;19.90;1.00;;;;;;5032207;28;20457;-71
2021/09/20 12:07:50;;;;;;;58.10;2.50;;;20.00;1.00;;;;;;5031813;28;20573;-70
2021/09/20 12:10:19;;;;;;;57.77;2.97;;;20.00;1.00;;;;;;5032037;28;20456;-70
2021/09/20 12:12:50;;;;;;;58.53;3.40;;;20.00;1.00;;;;;;5031256;28;20486;-70
2021/09/20 12:15:20;;;;;;;58.27;2.70;;;20.10;1.00;;;;;;5032351;28;20516;-70
2021/09/20 12:17:55;;;;;;;58.17;2.80;;;20.20;1.00;;;;;;5031786;28;20554;-70
2021/09/20 12:20:26;;;;;;;58.00;3.10;;;20.40;1.00;;;;;;5031997;28;20482;-70
2021/09/20 12:22:54;;;;;;;58.00;3.00;;;20.60;1.00;;;;;;5031900;28;20542;-71
2021/09/20 12:25:28;;;;;;;58.60;3.00;;;20.90;1.00;;;;;;5031670;28;20455;-70
2021/09/20 12:27:55;;;;;;;58.37;3.17;;;21.00;1.00;;;;;;5032272;28;20508;-70
2021/09/20 12:30:26;;;;;;;57.67;2.30;;;21.30;1.00;;;;;;5031685;28;20914;-70
2021/09/20 12:33:09;;;;;;;57.97;2.53;;;21.60;1.00;;;;;;5031832;28;20869;-71
2021/09/20 12:35:38;;;;;;;57.53;2.60;;;22.00;1.00;;;;;;5031343;28;20449;-70
2021/09/20 12:38:27;;;;;;;58.30;2.77;;;22.80;1.00;;;;;;5031501;28;20551;-71
2021/09/20 12:40:56;;;;;;;58.70;3.80;;;24.50;1.00;;;;;;5031871;28;20452;-70
2021/09/20 12:43:27;;;;;;;58.40;3.00;;;25.70;1.00;;;;;;5031765;28;20448;-70
2021/09/20 12:45:56;;;;;;;58.27;3.10;;;26.60;1.00;;;;;;5031368;28;20459;-70
2021/09/20 12:48:35;;;;;;;59.20;3.70;;;27.20;1.00;;;;;;5031360;28;20845;-70
2021/09/20 12:51:04;;;;;;;57.77;2.40;;;27.30;1.00;;;;;;5032144;28;20452;-70
2021/09/20 12:53:34;;;;;;;58.33;3.07;;;26.90;1.00;;;;;;5031602;28;20484;-70
2021/09/20 12:56:01;;;;;;;58.27;2.57;;;26.50;1.00;;;;;;5031340;28;20539;-70
2021/09/20 12:58:36;;;;;;;58.07;2.43;;;26.00;1.00;;;;;;5031543;28;20476;-71